createdAt,value
2023-04-06T00:00:21.089Z,3.17
2023-04-06T00:03:09.795Z,3.14
2023-04-06T00:05:38.218Z,3.17
2023-04-06T00:08:06.497Z,3.19
2023-04-06T00:10:34.824Z,3.22
2023-04-06T00:13:03.141Z,3.24
2023-04-06T00:15:31.643Z,3.22
2023-04-06T00:17:59.781Z,3.22
2023-04-06T00:20:28.002Z,3.23
2023-04-06T00:22:56.290Z,3.19
2023-04-06T00:25:24.756Z,3.16
2023-04-06T00:27:54.174Z,3.13
2023-04-06T00:30:22.620Z,3.05
2023-04-06T00:32:51.321Z,2.99
2023-04-06T00:35:19.864Z,2.93
2023-04-06T00:37:49.474Z,2.91
2023-04-06T00:40:17.902Z,2.86
2023-04-06T00:42:46.279Z,2.82
2023-04-06T00:45:14.689Z,2.80
2023-04-06T00:47:43.229Z,2.77
2023-04-06T00:50:12.124Z,2.75
2023-04-06T00:52:40.727Z,2.72
2023-04-06T00:55:09.778Z,2.69
2023-04-06T00:57:38.118Z,2.64
2023-04-06T01:00:06.937Z,2.64
2023-04-06T01:02:35.157Z,2.71
2023-04-06T01:05:03.731Z,2.71
2023-04-06T01:07:32.163Z,2.66
2023-04-06T01:10:00.584Z,2.65
2023-04-06T01:12:30.551Z,2.65
2023-04-06T01:14:58.874Z,2.60
2023-04-06T01:17:27.586Z,2.57
2023-04-06T01:19:56.019Z,2.52
2023-04-06T01:22:25.562Z,2.47
2023-04-06T01:24:53.975Z,2.43
2023-04-06T01:27:22.511Z,2.39
2023-04-06T01:29:50.828Z,2.38
2023-04-06T01:32:19.149Z,2.34
2023-04-06T01:34:47.518Z,2.31
2023-04-06T01:37:16.037Z,2.29
2023-04-06T01:39:45.897Z,2.30
2023-04-06T01:42:14.179Z,2.43
2023-04-06T01:44:42.506Z,2.43
2023-04-06T01:47:10.820Z,2.40
2023-04-06T01:49:39.981Z,2.38
2023-04-06T01:52:11.143Z,2.34
2023-04-06T01:54:39.325Z,2.27
2023-04-06T01:57:07.773Z,2.23
2023-04-06T01:59:36.695Z,2.20
2023-04-06T02:02:05.159Z,2.19
2023-04-06T02:04:33.438Z,2.17
2023-04-06T02:07:01.808Z,2.14
2023-04-06T02:09:30.113Z,2.12
2023-04-06T02:11:58.481Z,2.08
2023-04-06T02:14:27.376Z,2.05
2023-04-06T02:16:55.778Z,2.08
2023-04-06T02:19:24.054Z,2.18
2023-04-06T02:21:52.367Z,2.18
2023-04-06T02:24:26.361Z,2.15
2023-04-06T02:26:54.550Z,2.13
2023-04-06T02:29:22.718Z,2.13
2023-04-06T02:31:51.383Z,2.12
2023-04-06T02:34:19.923Z,2.03
2023-04-06T02:36:48.824Z,1.97
2023-04-06T02:39:17.336Z,1.93
2023-04-06T02:41:45.867Z,1.91
2023-04-06T02:44:14.391Z,1.90
2023-04-06T02:46:42.646Z,1.88
2023-04-06T02:49:10.951Z,1.95
2023-04-06T02:51:39.408Z,2.06
2023-04-06T02:54:09.183Z,2.05
2023-04-06T02:56:37.329Z,2.04
2023-04-06T02:59:05.495Z,2.06
2023-04-06T03:01:34.021Z,2.06
2023-04-06T03:04:02.542Z,2.05
2023-04-06T03:06:33.925Z,1.99
2023-04-06T03:09:03.935Z,1.97
2023-04-06T03:11:32.265Z,1.96
2023-04-06T03:14:00.875Z,1.96
2023-04-06T03:16:29.426Z,1.98
2023-04-06T03:18:57.811Z,2.03
2023-04-06T03:21:26.013Z,2.11
2023-04-06T03:23:54.319Z,2.10
2023-04-06T03:26:23.549Z,2.12
2023-04-06T03:28:51.817Z,2.13
2023-04-06T03:31:22.604Z,2.14
2023-04-06T03:33:51.045Z,2.15
2023-04-06T03:36:19.319Z,2.16
2023-04-06T03:38:47.541Z,2.13
2023-04-06T03:41:16.067Z,2.11
2023-04-06T03:43:44.365Z,2.18
2023-04-06T03:46:12.976Z,2.18
2023-04-06T03:48:41.424Z,2.12
2023-04-06T03:51:11.985Z,2.10
2023-04-06T03:53:40.347Z,2.08
2023-04-06T03:56:08.824Z,2.08
2023-04-06T03:58:37.083Z,2.01
2023-04-06T04:01:05.719Z,1.97
2023-04-06T04:03:34.102Z,1.95
2023-04-06T04:06:02.484Z,1.90
2023-04-06T04:08:30.970Z,1.86
2023-04-06T04:10:59.300Z,1.86
2023-04-06T04:13:27.711Z,1.91
2023-04-06T04:15:57.568Z,1.83
2023-04-06T04:18:25.783Z,1.82
2023-04-06T04:20:54.106Z,1.81
2023-04-06T04:42:14.789Z,1.57
2023-04-06T04:44:43.067Z,1.45
2023-04-06T04:47:11.515Z,1.59
2023-04-06T04:49:39.829Z,1.72
2023-04-06T04:52:08.231Z,1.84
2023-04-06T04:54:38.506Z,1.94
2023-04-06T04:57:06.870Z,2.00
2023-04-06T04:59:36.160Z,2.07
2023-04-06T05:02:04.649Z,2.23
2023-04-06T05:04:33.157Z,2.44
2023-04-06T05:07:06.437Z,2.51
2023-04-06T05:09:34.797Z,2.52
2023-04-06T05:12:03.556Z,2.54
2023-04-06T05:14:31.952Z,2.57
2023-04-06T05:17:00.864Z,2.61
2023-04-06T05:19:30.452Z,2.65
2023-04-06T05:21:59.065Z,2.72
2023-04-06T05:24:27.672Z,2.80
2023-04-06T05:26:56.341Z,2.93
2023-04-06T05:29:24.759Z,2.95
2023-04-06T05:31:53.421Z,2.95
2023-04-06T05:34:22.133Z,2.99
2023-04-06T05:36:50.203Z,3.01
2023-04-06T05:39:19.449Z,3.03
2023-04-06T05:41:47.714Z,3.08
2023-04-06T05:44:16.011Z,3.14
2023-04-06T05:46:44.249Z,3.25
2023-04-06T05:49:12.713Z,3.34
2023-04-06T05:51:41.569Z,3.38
2023-04-06T05:54:10.717Z,3.42
2023-04-06T05:56:41.659Z,3.48
2023-04-06T05:59:10.412Z,3.53
2023-04-06T06:01:39.012Z,3.65
2023-04-06T06:04:07.220Z,3.81
2023-04-06T06:06:35.469Z,3.91
2023-04-06T06:09:04.713Z,3.94
2023-04-06T06:11:34.378Z,4.00
2023-04-06T06:14:02.633Z,4.08
2023-04-06T06:16:31.031Z,4.12
2023-04-06T06:18:59.342Z,4.17
2023-04-06T06:21:27.827Z,4.24
2023-04-06T06:23:56.074Z,4.31
2023-04-06T06:26:24.251Z,4.33
2023-04-06T06:28:52.354Z,4.37
2023-04-06T06:31:24.310Z,4.44
2023-04-06T06:33:52.895Z,4.44
2023-04-06T06:36:21.182Z,4.50
2023-04-06T06:38:49.491Z,4.57
2023-04-06T06:41:17.757Z,4.63
2023-04-06T06:43:46.421Z,4.68
2023-04-06T06:46:17.514Z,4.75
2023-04-06T06:48:48.656Z,4.80
2023-04-06T06:51:17.043Z,4.85
2023-04-06T06:53:45.268Z,4.92
2023-04-06T06:56:14.076Z,5.00
2023-04-06T06:58:42.470Z,5.12
2023-04-06T07:01:11.132Z,5.24
2023-04-06T07:03:39.830Z,5.33
2023-04-06T07:06:10.366Z,5.39
2023-04-06T07:08:38.508Z,5.48
2023-04-06T07:11:07.042Z,5.56
2023-04-06T07:13:35.582Z,5.63
2023-04-06T07:16:06.552Z,5.73
2023-04-06T07:18:36.249Z,5.79
2023-04-06T07:21:05.046Z,5.85
2023-04-06T07:23:33.019Z,5.93
2023-04-06T07:26:05.040Z,6.01
2023-04-06T07:28:33.828Z,6.05
2023-04-06T07:31:07.208Z,6.10
